Apple Creek, Ohio
Current Conditions -  °F | °C
As of 1:56 AM on Sunday 26 Oct 2014 (Local Time) from KBJJ Reporting Station
Clear Clear  
Wind Chill: 50°   Ceiling: Unl
Heat Index: 50°   Visibility: 10mi
Dew Point: 32°   Wind: 7mph
Humidity: 50%   Direction: 290°WNW
Pressure: 29.83"   Gusts: NA
Location:  40.75°N, 81.84°W
Report Text: KBJJ 260556Z AUTO 29006KT 10SM CLR 10/00 A2983 RMK AO2 SLP101 60000 T01000000 10178 20100 58000 TSNO
Loading
Personal Weather Stations






























Interactive Weather Map
Tropical Storm Tracking
New forecast layout! Learn more

10-Day Weather Forecast

Advertisements
Track Severe Weather on mobile